Latest Weather Observations for Mount Nowa Nowa

IDV60801

Issued at 11:02 pm EST Saturday 18 April 2015 (issued every 30 minutes, with the page automatically refreshed every 10 minutes)

About weather observations | Map of weather stations | Latest weather observations for VIC | Other Formats
Station Details ID: 084144 Name: MOUNT NOWA NOWA Lat: -37.69 Lon: 148.09 Height: 350.0 m
Data from the previous 72 hours. | See also: Recent months at Mount Nowa Nowa
Date/Time
EST
Temp
°C
App
Temp
°C
Dew
Point
Rel
Hum
%
Delta-T
°C
Wind Press
QNH
hPa
Press
MSL
hPa
Rain
since 9 am
mm
Dir
 
Spd
km/h
Gust
km/h
Spd
kts
Gust
kts
18/11:00pm 12.5 11.5 12.3 99 0.1 NW 9 11 5 6 - - 12.0
18/10:30pm 12.4 10.6 12.2 99 0.1 NW 13 20 7 11 - - 12.0
18/10:00pm 12.6 10.9 12.4 99 0.1 NNW 13 19 7 10 - - 12.0
18/09:30pm 12.5 11.5 12.3 99 0.1 NNW 9 15 5 8 - - 12.0
18/09:00pm 12.6 11.6 12.4 99 0.1 NW 9 15 5 8 - - 12.0
18/08:30pm 12.7 12.3 12.5 99 0.1 W 6 7 3 4 - - 12.0
18/08:00pm 12.8 12.5 12.6 99 0.1 W 6 6 3 3 - - 12.0
18/07:30pm 12.9 12.6 12.7 99 0.1 W 6 7 3 4 - - 11.4
18/07:00pm 12.9 13.0 12.7 99 0.1 W 4 6 2 3 - - 11.4
18/06:30pm 12.9 13.0 12.7 99 0.1 W 4 7 2 4 - - 11.4
18/06:00pm 13.2 13.4 13.0 99 0.1 WSW 4 6 2 3 - - 11.4
18/05:30pm 13.3 13.1 13.1 99 0.1 WSW 6 13 3 7 - - 11.4
18/05:00pm 13.2 13.4 13.0 99 0.1 WSW 4 9 2 5 - - 11.4
18/04:30pm 13.3 13.1 13.0 98 0.2 WSW 6 9 3 5 - - 11.4
18/04:00pm 13.2 13.0 12.9 98 0.2 WSW 6 13 3 7 - - 11.4
18/03:30pm 13.4 13.2 13.1 98 0.2 SW 6 13 3 7 - - 11.4
18/03:00pm 14.2 14.3 13.9 98 0.2 SW 6 13 3 7 - - 11.4
18/02:30pm 14.5 15.0 14.0 97 0.3 S 4 7 2 4 - - 11.2
18/02:00pm 14.8 15.4 14.3 97 0.3 WSW 4 13 2 7 - - 10.4
18/01:30pm 14.8 15.8 14.3 97 0.3 ENE 2 6 1 3 - - 4.2
18/01:00pm 14.8 16.2 14.3 97 0.3 CALM 0 2 0 1 - - 1.0
18/12:30pm 15.1 15.8 14.5 96 0.3 SSW 4 9 2 5 - - 0.4
18/12:00pm 15.8 17.0 15.0 95 0.5 WSW 2 6 1 3 - - 0.0
18/11:30am 15.4 16.6 14.8 96 0.3 WSW 2 7 1 4 - - 0.0
18/11:00am 15.3 16.5 14.8 97 0.3 SSW 2 4 1 2 - - 0.0
18/10:30am 15.2 16.0 14.9 98 0.2 SW 4 6 2 3 - - 0.0
18/10:00am 14.8 15.5 14.6 99 0.1 SW 4 6 2 3 - - 0.0
18/09:30am 14.2 14.3 14.0 99 0.1 W 6 7 3 4 - - 0.0
18/09:00am 14.0 14.1 13.8 99 0.1 W 6 7 3 4 - - 2.4
18/08:30am 13.6 14.7 13.4 99 0.1 CALM 0 4 0 2 - - 2.4
18/08:00am 13.4 13.2 13.1 98 0.2 W 6 6 3 3 - - 2.4
18/07:30am 13.5 14.1 13.2 98 0.2 SW 2 4 1 2 - - 2.4
18/07:00am 13.3 12.9 13.0 98 0.2 W 7 15 4 8 - - 2.4
18/06:30am 13.3 12.9 13.0 98 0.2 WSW 7 15 4 8 - - 2.4
18/06:00am 13.4 12.6 12.9 97 0.3 WSW 9 15 5 8 - - 2.4
18/05:30am 14.0 13.3 13.1 94 0.5 WSW 9 17 5 9 - - 2.4
18/05:00am 17.2 16.7 13.9 81 1.9 WNW 9 15 5 8 - - 2.4
18/04:30am 17.3 16.5 14.0 81 1.9 NNW 11 19 6 10 - - 2.2
18/04:00am 17.4 15.0 13.7 79 2.1 NNW 19 28 10 15 - - 2.2
18/03:30am 17.2 15.5 13.7 80 2.0 NNW 15 28 8 15 - - 2.2
18/03:00am 17.2 16.2 13.5 79 2.1 NNW 11 22 6 12 - - 2.0
18/02:30am 16.3 15.8 13.8 85 1.4 NNE 9 19 5 10 - - 2.0
18/02:00am 16.0 14.9 14.2 89 1.0 N 13 19 7 10 - - 2.0
18/01:30am 15.5 14.6 13.7 89 1.0 N 11 15 6 8 - - 2.0
18/01:00am 16.3 16.0 13.4 83 1.7 NW 7 11 4 6 - - 1.8
18/12:30am 16.3 15.7 13.4 83 1.7 NNW 9 15 5 8 - - 1.8
18/12:00am 16.5 16.7 13.0 80 2.0 NNE 4 7 2 4 - - 1.6
 
Date/Time
EST
Temp
°C
App
Temp
°C
Dew
Point
Rel
Hum
%
Delta-T
°C
Wind Press
QNH
hPa
Press
MSL
hPa
Rain
since 9 am
mm
Dir
 
Spd
km/h
Gust
km/h
Spd
kts
Gust
kts
17/11:30pm 15.7 15.9 13.0 84 1.5 N 4 6 2 3 - - 1.6
17/11:00pm 14.8 14.7 13.2 90 0.9 NE 6 7 3 4 - - 1.6
17/10:30pm 13.9 14.6 13.3 96 0.3 NW 2 4 1 2 - - 1.6
17/10:00pm 13.9 14.1 13.0 94 0.5 WNW 4 6 2 3 - - 1.6
17/09:30pm 14.7 15.5 12.7 88 1.1 CALM 0 0 0 0 - - 1.6
17/09:00pm 15.2 16.0 12.7 85 1.4 CALM 0 0 0 0 - - 1.6
17/08:30pm 15.1 15.7 13.0 87 1.2 NNW 2 4 1 2 - - 1.6
17/08:00pm 14.4 15.4 13.1 92 0.7 CALM 0 0 0 0 - - 1.6
17/07:30pm 14.7 14.6 13.2 91 0.8 N 6 6 3 3 - - 1.6
17/07:00pm 14.8 14.7 13.3 91 0.8 N 6 7 3 4 - - 1.4
17/06:30pm 14.2 14.4 13.2 94 0.6 ENE 4 6 2 3 - - 1.2
17/06:00pm 14.0 14.2 13.2 95 0.4 NE 4 6 2 3 - - 1.0
17/05:30pm 14.0 14.2 13.1 94 0.5 NE 4 6 2 3 - - 0.4
17/05:00pm 14.1 13.6 12.8 92 0.7 ENE 7 9 4 5 - - 0.0
17/04:30pm 14.4 13.9 12.8 90 0.9 ESE 7 11 4 6 - - 0.0
17/04:00pm 14.9 14.5 12.9 88 1.1 E 7 9 4 5 - - 0.0
17/03:30pm 15.0 14.6 12.5 85 1.4 E 6 9 3 5 - - 0.0
17/03:00pm 15.5 15.5 12.4 82 1.7 E 4 6 2 3 - - 0.0
17/02:30pm 16.0 15.9 12.2 78 2.1 E 4 7 2 4 - - 0.0
17/02:00pm 16.7 16.7 12.3 75 2.5 ESE 4 6 2 3 - - 0.0
17/01:30pm 15.7 15.6 12.1 79 2.0 E 4 7 2 4 - - 0.0
17/01:00pm 15.3 15.0 11.5 78 2.1 E 4 6 2 3 - - 0.0
17/12:30pm 15.0 14.6 11.2 78 2.1 E 4 9 2 5 - - 0.0
17/12:00pm 15.0 14.6 11.0 77 2.2 E 4 9 2 5 - - 0.0
17/11:30am 14.4 13.9 10.6 78 2.0 E 4 7 2 4 - - 0.0
17/11:00am 14.4 13.8 10.4 77 2.1 E 4 9 2 5 - - 0.0
17/10:30am 14.1 13.4 9.9 76 2.2 E 4 7 2 4 - - 0.0
17/10:00am 13.4 12.2 9.6 78 2.0 E 6 11 3 6 - - 0.0
17/09:30am 12.7 11.4 9.2 79 1.8 E 6 13 3 7 - - 0.0
17/09:00am 12.4 11.4 8.9 79 1.8 E 4 6 2 3 - - 0.0
17/08:30am 11.9 11.0 9.1 83 1.4 E 4 6 2 3 - - 0.0
17/08:00am 11.4 10.3 8.6 83 1.4 E 4 6 2 3 - - 0.0
17/07:30am 11.1 9.9 8.0 81 1.5 E 4 6 2 3 - - 0.0
17/07:00am 11.0 10.6 8.4 84 1.3 CALM 0 0 0 0 - - 0.0
17/06:30am 10.9 10.4 8.0 82 1.4 CALM 0 2 0 1 - - 0.0
17/06:00am 10.7 10.0 6.8 77 1.9 CALM 0 0 0 0 - - 0.0
17/05:30am 10.4 9.3 7.1 80 1.6 WNW 2 2 1 1 - - 0.0
17/05:00am 10.3 9.3 7.2 81 1.5 NW 2 4 1 2 - - 0.0
17/04:30am 10.4 9.3 7.1 80 1.6 WNW 2 4 1 2 - - 0.0
17/04:00am 10.3 8.8 7.0 80 1.6 W 4 6 2 3 - - 0.0
17/03:30am 10.5 9.1 7.2 80 1.6 W 4 6 2 3 - - 0.0
17/03:00am 10.5 8.7 7.0 79 1.7 W 6 9 3 5 - - 0.0
17/02:30am 10.7 8.9 7.2 79 1.7 W 6 7 3 4 - - 0.0
17/02:00am 10.8 9.1 7.5 80 1.6 W 6 9 3 5 - - 0.0
17/01:30am 10.8 9.5 7.7 81 1.5 W 4 7 2 4 - - 0.0
17/01:00am 11.0 9.8 7.9 81 1.5 W 4 7 2 4 - - 0.0
17/12:30am 11.1 9.5 8.1 82 1.5 WSW 6 7 3 4 - - 0.0
17/12:00am 11.3 10.2 8.5 83 1.4 W 4 7 2 4 - - 0.0
 
Date/Time
EST
Temp
°C
App
Temp
°C
Dew
Point
Rel
Hum
%
Delta-T
°C
Wind Press
QNH
hPa
Press
MSL
hPa
Rain
since 9 am
mm
Dir
 
Spd
km/h
Gust
km/h
Spd
kts
Gust
kts
16/11:30pm 11.6 10.7 9.3 86 1.2 W 4 7 2 4 - - 0.0
16/11:00pm 11.8 11.0 9.5 86 1.2 W 4 6 2 3 - - 0.0
16/10:30pm 12.0 11.2 9.6 85 1.2 W 4 6 2 3 - - 0.0
16/10:00pm 12.2 11.8 9.9 86 1.2 WSW 2 7 1 4 - - 0.0
16/09:30pm 12.4 12.1 10.0 85 1.3 SW 2 6 1 3 - - 0.0
16/09:00pm 12.6 11.9 10.1 85 1.3 WSW 4 7 2 4 - - 0.0
16/08:30pm 12.7 12.0 10.1 84 1.4 SW 4 6 2 3 - - 0.0
16/08:00pm 12.9 12.3 10.3 84 1.4 SW 4 7 2 4 - - 0.0
16/07:30pm 13.0 12.4 10.5 85 1.3 SW 4 9 2 5 - - 0.0
16/07:00pm 13.0 12.4 10.4 84 1.4 SSW 4 9 2 5 - - 0.0
16/06:30pm 13.1 12.5 10.3 83 1.5 SSW 4 6 2 3 - - 0.0
16/06:00pm 13.2 12.7 10.6 84 1.4 SW 4 6 2 3 - - 0.0
16/05:30pm 13.4 12.9 10.6 83 1.5 SSW 4 9 2 5 - - 0.0
16/05:00pm 13.7 13.2 10.7 82 1.6 S 4 9 2 5 - - 0.0
16/04:30pm 14.0 13.5 10.6 80 1.8 SSW 4 9 2 5 - - 0.0
16/04:00pm 14.0 13.1 10.6 80 1.8 SSW 6 13 3 7 - - 0.0
16/03:30pm 14.8 14.1 11.4 80 1.9 SSW 6 13 3 7 - - 0.0
16/03:00pm 14.4 13.2 11.6 83 1.5 S 9 17 5 9 - - 0.0
16/02:30pm 14.3 13.2 12.0 86 1.3 S 9 15 5 8 - - 0.0
16/02:00pm 15.4 15.0 12.9 85 1.4 S 7 11 4 6 - - 0.0
16/01:30pm 15.5 16.0 12.8 84 1.5 S 2 7 1 4 - - 0.0
16/01:00pm 15.8 15.6 13.1 84 1.5 SSW 6 9 3 5 - - 0.0
16/12:30pm 15.5 15.3 13.0 85 1.4 WSW 6 13 3 7 - - 0.0
16/12:00pm 16.4 16.1 13.3 82 1.8 WSW 7 15 4 8 - - 0.0
16/11:30am 16.0 15.8 13.1 83 1.6 W 6 13 3 7 - - 0.0
16/11:00am 15.6 15.5 13.3 86 1.3 W 6 13 3 7 - - 0.0
16/10:30am 15.1 14.9 13.1 88 1.1 W 6 15 3 8 - - 0.0
16/10:00am 14.9 14.5 12.9 88 1.1 W 7 15 4 8 - - 0.0
16/09:30am 14.8 14.0 13.0 89 1.0 WSW 9 19 5 10 - - 0.0
16/09:00am 14.5 13.7 13.0 91 0.8 WSW 9 19 5 10 - - 0.2
16/08:30am 14.4 14.0 13.1 92 0.7 W 7 13 4 7 - - 0.2
16/08:00am 14.3 14.1 13.0 92 0.7 W 6 9 3 5 - - 0.2
16/07:30am 14.3 13.9 12.9 91 0.8 W 7 9 4 5 - - 0.2
16/07:00am 14.2 13.9 12.8 91 0.8 W 6 9 3 5 - - 0.2
16/06:30am 14.2 13.7 12.6 90 0.9 W 7 9 4 5 - - 0.2
16/06:00am 14.2 13.9 12.6 90 0.9 W 6 9 3 5 - - 0.2
16/05:30am 14.2 13.6 12.4 89 1.0 W 7 13 4 7 - - 0.2
16/05:00am 14.2 13.2 12.4 89 1.0 W 9 19 5 10 - - 0.2
16/04:30am 14.0 13.3 12.0 88 1.1 W 7 11 4 6 - - 0.2
16/04:00am 14.4 13.7 12.1 86 1.3 W 7 13 4 7 - - 0.2
16/03:30am 14.4 13.7 12.1 86 1.3 W 7 15 4 8 - - 0.2
16/03:00am 14.6 13.6 12.3 86 1.3 W 9 13 5 7 - - 0.2
16/02:30am 14.6 13.6 12.3 86 1.3 W 9 15 5 8 - - 0.2
16/02:00am 14.8 13.8 12.3 85 1.4 W 9 19 5 10 - - 0.2
16/01:30am 15.1 13.7 12.2 83 1.6 W 11 24 6 13 - - 0.2
16/01:00am 15.3 13.5 12.2 82 1.7 WSW 13 28 7 15 - - 0.2
16/12:30am 16.0 14.3 12.6 80 1.9 WSW 13 28 7 15 - - 0.2
16/12:00am 18.7 17.6 11.8 64 3.9 WNW 9 15 5 8 - - 0.2
 
Date/Time
EST
Temp
°C
App
Temp
°C
Dew
Point
Rel
Hum
%
Delta-T
°C
Wind Press
QNH
hPa
Press
MSL
hPa
Rain
since 9 am
mm
Dir
 
Spd
km/h
Gust
km/h
Spd
kts
Gust
kts
15/11:30pm 19.0 17.8 11.6 62 4.1 NW 9 17 5 9 - - 0.2

Other Formats:

Comma delimited format used in spreadsheet applications
http://www.bom.gov.au/fwo/IDV60801/IDV60801.94930.axf

JavaScript Object Notation format (JSON) in row-major order
http://www.bom.gov.au/fwo/IDV60801/IDV60801.94930.json